BGA127G LFRZ-LFAQ
Flight info
| Callsign | BGA127G |
|---|---|
| Flight time | 0h 46m |
| Altitude | 28000 |
| Route | BALNI DCT PEPAL DCT BANTI |
| Aircraft | A337/H-SDE3GHIJ2J3J5M1RVWXY/LB2D1 |
Departure
| Time | 2026-04-28 11:10 |
|---|---|
| Airport | Saint-Nazaire-Montoir Airport (LFRZ) |
Arrival
| Time | 2026-04-28 11:56 |
|---|---|
| Airport | Albert Bray airport (LFAQ) |
| Time | Latitude | Longitude | Altitude | Speed | Heading |
|---|---|---|---|---|---|
| 2026-04-28 10:56 | 47.31296 | -2.16109 | 31 ft | 0 kts | 43° |
| 2026-04-28 11:06 | 47.31296 | -2.16108 | 26 ft | 1 kts | 43° |
| 2026-04-28 11:06 | 47.31302 | -2.16100 | 26 ft | 2 kts | 43° |
| 2026-04-28 11:06 | 47.31313 | -2.16085 | 31 ft | 2 kts | 45° |
| 2026-04-28 11:06 | 47.31327 | -2.16043 | 47 ft | 8 kts | 69° |
| 2026-04-28 11:07 | 47.31350 | -2.15928 | 29 ft | 13 kts | 96° |
| 2026-04-28 11:07 | 47.31289 | -2.15787 | 29 ft | 20 kts | 140° |
| 2026-04-28 11:07 | 47.31137 | -2.15706 | 28 ft | 27 kts | 167° |
| 2026-04-28 11:07 | 47.31025 | -2.15896 | 28 ft | 31 kts | 253° |
| 2026-04-28 11:08 | 47.30962 | -2.16198 | 30 ft | 31 kts | 253° |
| 2026-04-28 11:08 | 47.30947 | -2.16382 | 27 ft | 15 kts | 281° |
| 2026-04-28 11:08 | 47.30931 | -2.16431 | 27 ft | 4 kts | 186° |
| 2026-04-28 11:08 | 47.30924 | -2.16403 | 27 ft | 4 kts | 81° |
| 2026-04-28 11:09 | 47.30928 | -2.16387 | 27 ft | 0 kts | 72° |
| 2026-04-28 11:09 | 47.30968 | -2.16185 | 30 ft | 52 kts | 74° |
| 2026-04-28 11:09 | 47.31130 | -2.15371 | 30 ft | 112 kts | 73° |
| 2026-04-28 11:09 | 47.31404 | -2.14042 | 178 ft | 153 kts | 72° |
| 2026-04-28 11:10 | 47.31740 | -2.12410 | 590 ft | 179 kts | 71° |
| 2026-04-28 11:10 | 47.32132 | -2.10478 | 863 ft | 216 kts | 71° |
| 2026-04-28 11:10 | 47.32602 | -2.08144 | 807 ft | 262 kts | 71° |
| 2026-04-28 11:10 | 47.33226 | -2.05356 | 687 ft | 305 kts | 63° |
| 2026-04-28 11:11 | 47.34543 | -2.02874 | 1499 ft | 301 kts | 43° |
| 2026-04-28 11:11 | 47.35991 | -2.00984 | 3318 ft | 260 kts | 42° |
| 2026-04-28 11:11 | 47.37309 | -1.99287 | 4484 ft | 247 kts | 41° |
| 2026-04-28 11:11 | 47.38603 | -1.97621 | 5263 ft | 246 kts | 41° |
| 2026-04-28 11:12 | 47.39899 | -1.95948 | 5985 ft | 249 kts | 42° |
| 2026-04-28 11:12 | 47.41212 | -1.94241 | 6649 ft | 254 kts | 42° |
| 2026-04-28 11:12 | 47.42557 | -1.92493 | 7287 ft | 259 kts | 41° |
| 2026-04-28 11:12 | 47.43917 | -1.90727 | 8011 ft | 262 kts | 41° |
| 2026-04-28 11:13 | 47.45303 | -1.88927 | 8602 ft | 269 kts | 40° |
| 2026-04-28 11:13 | 47.46733 | -1.87070 | 9182 ft | 277 kts | 40° |
| 2026-04-28 11:13 | 47.48194 | -1.85172 | 9804 ft | 282 kts | 40° |
| 2026-04-28 11:13 | 47.49688 | -1.83229 | 10283 ft | 292 kts | 39° |
| 2026-04-28 11:14 | 47.51258 | -1.81189 | 10534 ft | 309 kts | 39° |
| 2026-04-28 11:14 | 47.52907 | -1.79042 | 10806 ft | 322 kts | 40° |
| 2026-04-28 11:14 | 47.54584 | -1.76855 | 11301 ft | 329 kts | 39° |
| 2026-04-28 11:14 | 47.56314 | -1.74594 | 11782 ft | 335 kts | 40° |
| 2026-04-28 11:15 | 47.58069 | -1.72301 | 12361 ft | 338 kts | 39° |
| 2026-04-28 11:15 | 47.59837 | -1.69986 | 12953 ft | 340 kts | 38° |
| 2026-04-28 11:15 | 47.61617 | -1.67641 | 13495 ft | 345 kts | 40° |
| 2026-04-28 11:15 | 47.63374 | -1.65183 | 14034 ft | 348 kts | 41° |
| 2026-04-28 11:16 | 47.65108 | -1.62639 | 14485 ft | 353 kts | 43° |
| 2026-04-28 11:16 | 47.66835 | -1.60046 | 14995 ft | 355 kts | 43° |
| 2026-04-28 11:16 | 47.68577 | -1.57412 | 15463 ft | 359 kts | 43° |
| 2026-04-28 11:16 | 47.70329 | -1.54761 | 15973 ft | 361 kts | 43° |
| 2026-04-28 11:17 | 47.72101 | -1.52089 | 16430 ft | 364 kts | 43° |
| 2026-04-28 11:17 | 47.73887 | -1.49399 | 16893 ft | 367 kts | 43° |
| 2026-04-28 11:17 | 47.75686 | -1.46696 | 17390 ft | 370 kts | 43° |
| 2026-04-28 11:17 | 47.77507 | -1.43966 | 17840 ft | 373 kts | 43° |
| 2026-04-28 11:18 | 47.79337 | -1.41222 | 18319 ft | 375 kts | 43° |
| 2026-04-28 11:18 | 47.81173 | -1.38469 | 18823 ft | 375 kts | 44° |
| 2026-04-28 11:18 | 47.83017 | -1.35700 | 19205 ft | 378 kts | 43° |
| 2026-04-28 11:18 | 47.84878 | -1.32899 | 19506 ft | 383 kts | 43° |
| 2026-04-28 11:19 | 47.86766 | -1.30058 | 19825 ft | 388 kts | 43° |
| 2026-04-28 11:19 | 47.88672 | -1.27185 | 20139 ft | 392 kts | 43° |
| 2026-04-28 11:19 | 47.90607 | -1.24267 | 20348 ft | 400 kts | 43° |
| 2026-04-28 11:19 | 47.92570 | -1.21301 | 20634 ft | 404 kts | 43° |
| 2026-04-28 11:20 | 47.94555 | -1.18297 | 20966 ft | 408 kts | 43° |
| 2026-04-28 11:20 | 47.96556 | -1.15265 | 21279 ft | 412 kts | 43° |
| 2026-04-28 11:20 | 47.98571 | -1.12209 | 21574 ft | 415 kts | 43° |
| 2026-04-28 11:20 | 48.00605 | -1.09120 | 21876 ft | 419 kts | 43° |
| 2026-04-28 11:21 | 48.02656 | -1.06001 | 22252 ft | 421 kts | 43° |
| 2026-04-28 11:21 | 48.04714 | -1.02868 | 22557 ft | 425 kts | 43° |
| 2026-04-28 11:21 | 48.06764 | -0.99745 | 22815 ft | 429 kts | 43° |
| 2026-04-28 11:21 | 48.08859 | -0.96548 | 23091 ft | 432 kts | 43° |
| 2026-04-28 11:22 | 48.10969 | -0.93326 | 23349 ft | 436 kts | 43° |
| 2026-04-28 11:22 | 48.13100 | -0.90065 | 23626 ft | 439 kts | 43° |
| 2026-04-28 11:22 | 48.15241 | -0.86786 | 23860 ft | 442 kts | 43° |
| 2026-04-28 11:22 | 48.17392 | -0.83487 | 24100 ft | 444 kts | 43° |
| 2026-04-28 11:23 | 48.19561 | -0.80157 | 24343 ft | 447 kts | 43° |
| 2026-04-28 11:23 | 48.21727 | -0.76826 | 24682 ft | 446 kts | 43° |
| 2026-04-28 11:23 | 48.23877 | -0.73511 | 25161 ft | 441 kts | 43° |
| 2026-04-28 11:23 | 48.26002 | -0.70232 | 25637 ft | 437 kts | 43° |
| 2026-04-28 11:24 | 48.28115 | -0.66968 | 25936 ft | 436 kts | 43° |
| 2026-04-28 11:24 | 48.30231 | -0.63698 | 26258 ft | 436 kts | 44° |
| 2026-04-28 11:24 | 48.32344 | -0.60429 | 26570 ft | 436 kts | 44° |
| 2026-04-28 11:24 | 48.34456 | -0.57158 | 26881 ft | 436 kts | 44° |
| 2026-04-28 11:25 | 48.36563 | -0.53890 | 27190 ft | 435 kts | 44° |
| 2026-04-28 11:25 | 48.38672 | -0.50614 | 27514 ft | 435 kts | 44° |
| 2026-04-28 11:25 | 48.40771 | -0.47350 | 27812 ft | 434 kts | 44° |
| 2026-04-28 11:25 | 48.42869 | -0.44083 | 28065 ft | 435 kts | 44° |
| 2026-04-28 11:26 | 48.44982 | -0.40789 | 28122 ft | 438 kts | 44° |
| 2026-04-28 11:26 | 48.49218 | -0.34173 | 28117 ft | 439 kts | 44° |
| 2026-04-28 11:27 | 48.53449 | -0.27544 | 28112 ft | 439 kts | 44° |
| 2026-04-28 11:27 | 48.57903 | -0.21269 | 28118 ft | 438 kts | 39° |
| 2026-04-28 11:28 | 48.62477 | -0.15197 | 28120 ft | 438 kts | 39° |
| 2026-04-28 11:28 | 48.67068 | -0.09157 | 28138 ft | 435 kts | 39° |
| 2026-04-28 11:29 | 48.71557 | -0.03231 | 28124 ft | 429 kts | 39° |
| 2026-04-28 11:29 | 48.76052 | 0.02729 | 28127 ft | 433 kts | 39° |
| 2026-04-28 11:30 | 48.80606 | 0.08789 | 28123 ft | 437 kts | 40° |
| 2026-04-28 11:30 | 48.87485 | 0.17975 | 28122 ft | 437 kts | 40° |
| 2026-04-28 11:31 | 48.92013 | 0.24040 | 28132 ft | 437 kts | 40° |
| 2026-04-28 11:31 | 48.96573 | 0.30164 | 28124 ft | 437 kts | 40° |
| 2026-04-28 11:32 | 49.01126 | 0.36292 | 28126 ft | 437 kts | 40° |
| 2026-04-28 11:32 | 49.05672 | 0.42429 | 28120 ft | 437 kts | 40° |
| 2026-04-28 11:33 | 49.10224 | 0.48586 | 28135 ft | 438 kts | 40° |
| 2026-04-28 11:33 | 49.14777 | 0.54762 | 27984 ft | 436 kts | 40° |
| 2026-04-28 11:34 | 49.17041 | 0.57840 | 27347 ft | 435 kts | 40° |
| 2026-04-28 11:34 | 49.19286 | 0.60897 | 26876 ft | 430 kts | 40° |
| 2026-04-28 11:34 | 49.21509 | 0.63926 | 26326 ft | 427 kts | 40° |
| 2026-04-28 11:34 | 49.23717 | 0.66940 | 25974 ft | 425 kts | 40° |
| 2026-04-28 11:35 | 49.25921 | 0.69950 | 25548 ft | 425 kts | 40° |
| 2026-04-28 11:35 | 49.28127 | 0.72967 | 24854 ft | 426 kts | 40° |
| 2026-04-28 11:35 | 49.30342 | 0.75999 | 24167 ft | 428 kts | 40° |
| 2026-04-28 11:35 | 49.32563 | 0.79039 | 23532 ft | 426 kts | 41° |
| 2026-04-28 11:36 | 49.34751 | 0.82041 | 23034 ft | 418 kts | 41° |
| 2026-04-28 11:36 | 49.36895 | 0.84991 | 22554 ft | 410 kts | 41° |
| 2026-04-28 11:36 | 49.38997 | 0.87886 | 22077 ft | 402 kts | 41° |
| 2026-04-28 11:36 | 49.41064 | 0.90735 | 21577 ft | 396 kts | 41° |
| 2026-04-28 11:37 | 49.43094 | 0.93537 | 21130 ft | 390 kts | 42° |
| 2026-04-28 11:37 | 49.45068 | 0.96264 | 20688 ft | 384 kts | 42° |
| 2026-04-28 11:37 | 49.47073 | 0.99035 | 20214 ft | 380 kts | 42° |
| 2026-04-28 11:37 | 49.48996 | 1.01698 | 19773 ft | 376 kts | 42° |
| 2026-04-28 11:38 | 49.50928 | 1.04374 | 19329 ft | 372 kts | 42° |
| 2026-04-28 11:38 | 49.52840 | 1.07028 | 18892 ft | 368 kts | 43° |
| 2026-04-28 11:38 | 49.54727 | 1.09648 | 18441 ft | 364 kts | 43° |
| 2026-04-28 11:38 | 49.56596 | 1.12246 | 17943 ft | 359 kts | 43° |
| 2026-04-28 11:39 | 49.58436 | 1.14805 | 17518 ft | 354 kts | 43° |
| 2026-04-28 11:39 | 49.60244 | 1.17322 | 17086 ft | 348 kts | 44° |
| 2026-04-28 11:39 | 49.62026 | 1.19806 | 16668 ft | 343 kts | 44° |
| 2026-04-28 11:39 | 49.63781 | 1.22256 | 16237 ft | 338 kts | 43° |
| 2026-04-28 11:40 | 49.65511 | 1.24674 | 15841 ft | 333 kts | 44° |
| 2026-04-28 11:40 | 49.67221 | 1.27067 | 15427 ft | 331 kts | 44° |
| 2026-04-28 11:40 | 49.68921 | 1.29449 | 15026 ft | 328 kts | 44° |
| 2026-04-28 11:40 | 49.70601 | 1.31802 | 14630 ft | 325 kts | 45° |
| 2026-04-28 11:41 | 49.72266 | 1.34138 | 14233 ft | 322 kts | 45° |
| 2026-04-28 11:41 | 49.73913 | 1.36452 | 13800 ft | 319 kts | 44° |
| 2026-04-28 11:41 | 49.75549 | 1.38749 | 13390 ft | 315 kts | 44° |
| 2026-04-28 11:41 | 49.77154 | 1.41008 | 13003 ft | 311 kts | 45° |
| 2026-04-28 11:42 | 49.78751 | 1.43258 | 12623 ft | 309 kts | 47° |
| 2026-04-28 11:42 | 49.80334 | 1.45492 | 12228 ft | 307 kts | 45° |
| 2026-04-28 11:42 | 49.81910 | 1.47717 | 11836 ft | 305 kts | 46° |
| 2026-04-28 11:42 | 49.83465 | 1.49912 | 11449 ft | 300 kts | 47° |
| 2026-04-28 11:43 | 49.85009 | 1.52091 | 11073 ft | 300 kts | 46° |
| 2026-04-28 11:43 | 49.86533 | 1.54241 | 10834 ft | 290 kts | 46° |
| 2026-04-28 11:43 | 49.87985 | 1.56289 | 10760 ft | 275 kts | 45° |
| 2026-04-28 11:43 | 49.89364 | 1.58237 | 10664 ft | 262 kts | 46° |
| 2026-04-28 11:44 | 49.90685 | 1.60131 | 10551 ft | 257 kts | 50° |
| 2026-04-28 11:44 | 49.91769 | 1.62315 | 10395 ft | 255 kts | 64° |
| 2026-04-28 11:44 | 49.92392 | 1.64864 | 10041 ft | 251 kts | 81° |
| 2026-04-28 11:44 | 49.92628 | 1.67531 | 9695 ft | 248 kts | 86° |
| 2026-04-28 11:45 | 49.92765 | 1.70183 | 9387 ft | 245 kts | 88° |
| 2026-04-28 11:45 | 49.92883 | 1.72817 | 9091 ft | 246 kts | 87° |
| 2026-04-28 11:45 | 49.92996 | 1.75422 | 8789 ft | 244 kts | 86° |
| 2026-04-28 11:45 | 49.93111 | 1.78059 | 8494 ft | 240 kts | 87° |
| 2026-04-28 11:46 | 49.93223 | 1.80638 | 8199 ft | 240 kts | 87° |
| 2026-04-28 11:46 | 49.93333 | 1.83194 | 7892 ft | 242 kts | 87° |
| 2026-04-28 11:46 | 49.93445 | 1.85782 | 7584 ft | 239 kts | 87° |
| 2026-04-28 11:46 | 49.93557 | 1.88345 | 7299 ft | 237 kts | 87° |
| 2026-04-28 11:47 | 49.93667 | 1.90894 | 7000 ft | 236 kts | 87° |
| 2026-04-28 11:47 | 49.93776 | 1.93443 | 6711 ft | 237 kts | 87° |
| 2026-04-28 11:47 | 49.93884 | 1.95980 | 6395 ft | 234 kts | 87° |
| 2026-04-28 11:47 | 49.93990 | 1.98484 | 6088 ft | 231 kts | 86° |
| 2026-04-28 11:48 | 49.94096 | 2.00981 | 5784 ft | 232 kts | 86° |
| 2026-04-28 11:48 | 49.94201 | 2.03478 | 5498 ft | 232 kts | 86° |
| 2026-04-28 11:48 | 49.94303 | 2.05968 | 5209 ft | 230 kts | 86° |
| 2026-04-28 11:48 | 49.94405 | 2.08426 | 4872 ft | 228 kts | 86° |
| 2026-04-28 11:49 | 49.94509 | 2.10903 | 4514 ft | 234 kts | 85° |
| 2026-04-28 11:49 | 49.94615 | 2.13487 | 4163 ft | 245 kts | 86° |
| 2026-04-28 11:49 | 49.94723 | 2.16127 | 3837 ft | 243 kts | 85° |
| 2026-04-28 11:49 | 49.94831 | 2.18727 | 3524 ft | 240 kts | 85° |
| 2026-04-28 11:50 | 49.94935 | 2.21302 | 3200 ft | 237 kts | 86° |
| 2026-04-28 11:50 | 49.95036 | 2.23833 | 2904 ft | 233 kts | 85° |
| 2026-04-28 11:50 | 49.95134 | 2.26317 | 2602 ft | 228 kts | 84° |
| 2026-04-28 11:50 | 49.95231 | 2.28759 | 2508 ft | 229 kts | 85° |
| 2026-04-28 11:51 | 49.95332 | 2.31266 | 2509 ft | 234 kts | 84° |
| 2026-04-28 11:51 | 49.95434 | 2.33804 | 2508 ft | 236 kts | 85° |
| 2026-04-28 11:51 | 49.95533 | 2.36354 | 2508 ft | 237 kts | 85° |
| 2026-04-28 11:51 | 49.95618 | 2.38882 | 2486 ft | 229 kts | 85° |
| 2026-04-28 11:52 | 49.95703 | 2.41261 | 2491 ft | 212 kts | 84° |
| 2026-04-28 11:52 | 49.95791 | 2.43486 | 2496 ft | 204 kts | 84° |
| 2026-04-28 11:52 | 49.95879 | 2.45684 | 2491 ft | 204 kts | 84° |
| 2026-04-28 11:52 | 49.95969 | 2.47869 | 2503 ft | 197 kts | 85° |
| 2026-04-28 11:53 | 49.96046 | 2.49893 | 2492 ft | 179 kts | 84° |
| 2026-04-28 11:53 | 49.96114 | 2.51731 | 2474 ft | 164 kts | 84° |
| 2026-04-28 11:53 | 49.96185 | 2.53427 | 2315 ft | 154 kts | 83° |
| 2026-04-28 11:53 | 49.96207 | 2.55049 | 2042 ft | 147 kts | 85° |
| 2026-04-28 11:54 | 49.96247 | 2.56580 | 1781 ft | 136 kts | 80° |
| 2026-04-28 11:54 | 49.96349 | 2.58032 | 1580 ft | 136 kts | 78° |
| 2026-04-28 11:54 | 49.96452 | 2.59503 | 1396 ft | 137 kts | 78° |
| 2026-04-28 11:54 | 49.96560 | 2.60974 | 1216 ft | 137 kts | 79° |
| 2026-04-28 11:55 | 49.96634 | 2.62447 | 1027 ft | 136 kts | 80° |
| 2026-04-28 11:55 | 49.96712 | 2.63921 | 881 ft | 138 kts | 79° |
| 2026-04-28 11:55 | 49.96790 | 2.65406 | 711 ft | 138 kts | 80° |
| 2026-04-28 11:55 | 49.96870 | 2.66871 | 526 ft | 134 kts | 78° |
| 2026-04-28 11:56 | 49.96955 | 2.68310 | 376 ft | 132 kts | 79° |
| 2026-04-28 11:56 | 49.97020 | 2.69455 | 375 ft | 78 kts | 86° |
| 2026-04-28 11:56 | 49.97048 | 2.69844 | 376 ft | 2 kts | 38° |
| 2026-04-28 11:56 | 49.97054 | 2.69843 | 375 ft | 0 kts | 9° |
| 2026-04-28 11:57 | 49.97086 | 2.69837 | 373 ft | 12 kts | 353° |
| 2026-04-28 11:57 | 49.97188 | 2.69793 | 380 ft | 16 kts | 319° |
| 2026-04-28 11:57 | 49.97264 | 2.69681 | 374 ft | 13 kts | 338° |
| 2026-04-28 11:57 | 49.97287 | 2.69695 | 374 ft | 3 kts | 51° |
| 2026-04-28 11:58 | 49.97292 | 2.69721 | 374 ft | 3 kts | 80° |
| 2026-04-28 11:58 | 49.97293 | 2.69731 | 374 ft | 0 kts | 84° |